Time;durP1;ratioP1;P1;durP2;ratioP2;P2;SDS_P1;SDS_P2;PMS_P1;PMS_P2;Temp;Humidity;BMP_temperature;BMP_pressure;BME280_temperature;BME280_humidity;BME280_pressure;Samples;Min_cycle;Max_cycle;Signal;HPM_P1;HPM_P2
2024/01/09 00:02:16;;;;;;;0.00;0.00;;;26.90;48.20;;;;;;5102079;28;20201;-41
2024/01/09 00:04:46;;;;;;;0.00;0.00;;;26.90;48.20;;;;;;5097203;28;20198;-42
2024/01/09 00:07:19;;;;;;;0.00;0.00;;;26.90;48.20;;;;;;5107226;28;20197;-47
2024/01/09 00:09:49;;;;;;;0.00;0.00;;;26.90;48.20;;;;;;5089803;28;20619;-41
2024/01/09 00:12:20;;;;;;;0.00;0.00;;;27.00;48.20;;;;;;5086954;28;20217;-43
2024/01/09 00:14:51;;;;;;;0.00;0.00;;;27.00;48.20;;;;;;5087821;28;20217;-44
2024/01/09 00:17:21;;;;;;;0.00;0.00;;;27.00;48.20;;;;;;5088255;28;20205;-46
2024/01/09 00:19:52;;;;;;;0.00;0.00;;;27.00;48.20;;;;;;5087361;28;20229;-42
2024/01/09 00:22:24;;;;;;;0.00;0.00;;;27.00;48.20;;;;;;5088268;28;20728;-43
2024/01/09 00:24:55;;;;;;;0.00;0.00;;;27.00;48.20;;;;;;5087091;28;20206;-42
2024/01/09 00:27:26;;;;;;;0.00;0.00;;;27.00;48.20;;;;;;5088046;28;20553;-44
2024/01/09 00:29:56;;;;;;;0.00;0.00;;;27.10;48.30;;;;;;5088443;28;20246;-41
2024/01/09 00:32:27;;;;;;;0.00;0.00;;;27.10;48.20;;;;;;5087312;28;20183;-42
2024/01/09 00:34:58;;;;;;;0.00;0.00;;;27.10;48.20;;;;;;5088137;28;20612;-40
2024/01/09 00:37:30;;;;;;;0.00;0.00;;;27.10;48.20;;;;;;5087780;28;20194;-43
2024/01/09 00:40:01;;;;;;;0.00;0.00;;;27.10;48.20;;;;;;5087251;28;20233;-42
2024/01/09 00:42:31;;;;;;;0.00;0.00;;;27.10;48.10;;;;;;5087620;28;20561;-41
2024/01/09 00:45:02;;;;;;;0.00;0.00;;;27.10;48.20;;;;;;5086491;28;20186;-42
2024/01/09 00:47:32;;;;;;;0.00;0.00;;;27.10;48.10;;;;;;5087797;28;20226;-43
2024/01/09 00:50:03;;;;;;;0.00;0.00;;;27.10;48.10;;;;;;5087902;28;20229;-43
2024/01/09 00:52:36;;;;;;;0.00;0.00;;;27.10;48.20;;;;;;5087699;28;20198;-42
2024/01/09 00:55:07;;;;;;;0.00;0.00;;;27.10;48.10;;;;;;5087019;28;20194;-42
2024/01/09 00:57:38;;;;;;;0.00;0.00;;;27.10;48.00;;;;;;5087876;28;20190;-45
2024/01/09 01:00:09;;;;;;;0.00;0.00;;;27.20;48.00;;;;;;5087011;28;20226;-43
2024/01/09 01:02:40;;;;;;;0.00;0.00;;;27.20;48.00;;;;;;5087619;28;20194;-44
2024/01/09 01:05:11;;;;;;;0.00;0.00;;;27.20;47.90;;;;;;5086814;28;20194;-47
2024/01/09 01:07:43;;;;;;;0.00;0.00;;;27.20;48.50;;;;;;5086141;28;20194;-44
2024/01/09 01:10:14;;;;;;;0.00;0.00;;;27.20;47.90;;;;;;5086803;28;20697;-44
2024/01/09 01:12:45;;;;;;;0.00;0.00;;;27.20;47.90;;;;;;5087617;28;20657;-44
2024/01/09 01:15:15;;;;;;;0.00;0.00;;;27.20;47.80;;;;;;5087264;28;20194;-42
2024/01/09 01:17:46;;;;;;;0.00;0.00;;;27.30;47.80;;;;;;5086806;28;20190;-43
2024/01/09 01:20:17;;;;;;;0.00;0.00;;;27.20;47.70;;;;;;5086949;28;20237;-42
2024/01/09 01:22:49;;;;;;;0.00;0.00;;;27.20;47.60;;;;;;5086915;28;20201;-42
2024/01/09 01:25:20;;;;;;;0.00;0.00;;;27.20;48.20;;;;;;5095750;28;20204;-43
2024/01/09 01:27:50;;;;;;;0.00;0.00;;;27.30;47.60;;;;;;5101370;28;20194;-41
2024/01/09 01:30:21;;;;;;;0.00;0.00;;;27.20;47.60;;;;;;5088061;28;20635;-43
2024/01/09 01:32:52;;;;;;;0.00;0.00;;;27.20;47.70;;;;;;5086649;28;20707;-44
2024/01/09 01:35:22;;;;;;;0.00;0.00;;;27.20;47.70;;;;;;5086931;28;20205;-45
2024/01/09 01:37:55;;;;;;;0.00;0.00;;;27.30;47.70;;;;;;5086456;28;20198;-42
2024/01/09 01:40:25;;;;;;;0.00;0.00;;;27.20;47.70;;;;;;5085938;28;20232;-42
2024/01/09 01:42:59;;;;;;;0.00;0.00;;;27.30;47.70;;;;;;5087065;28;20438;-46
2024/01/09 01:45:30;;;;;;;0.00;0.00;;;27.30;47.70;;;;;;5085356;28;20198;-42
2024/01/09 01:48:02;;;;;;;0.00;0.00;;;27.30;47.70;;;;;;5086215;28;20198;-45
2024/01/09 01:50:35;;;;;;;0.00;0.00;;;27.30;47.70;;;;;;5086581;28;20717;-44
2024/01/09 01:53:08;;;;;;;0.00;0.00;;;27.30;47.70;;;;;;5087209;28;20231;-41
2024/01/09 01:55:39;;;;;;;0.00;0.00;;;27.30;47.70;;;;;;5086767;28;20202;-44
2024/01/09 01:58:10;;;;;;;0.00;0.00;;;27.30;47.60;;;;;;5090491;28;20190;-42
2024/01/09 02:00:42;;;;;;;0.00;0.00;;;27.30;47.60;;;;;;5089692;28;20225;-41
2024/01/09 02:03:14;;;;;;;0.00;0.00;;;27.30;47.60;;;;;;5090186;28;20201;-42
2024/01/09 02:05:45;;;;;;;0.00;0.00;;;27.30;47.60;;;;;;5090908;28;20284;-43
2024/01/09 02:08:22;;;;;;;0.00;0.00;;;27.30;47.60;;;;;;5095982;28;20198;-42
2024/01/09 02:10:53;;;;;;;0.00;0.00;;;27.30;47.60;;;;;;5090810;28;20228;-42
2024/01/09 02:13:24;;;;;;;0.00;0.00;;;27.30;47.60;;;;;;5090010;28;20197;-42
2024/01/09 02:15:54;;;;;;;0.00;0.00;;;27.30;47.60;;;;;;5090536;28;20663;-43
2024/01/09 02:18:25;;;;;;;0.00;0.00;;;27.30;47.60;;;;;;5090001;28;20205;-43
2024/01/09 02:20:56;;;;;;;0.00;0.00;;;27.30;47.60;;;;;;5089490;28;20623;-43
2024/01/09 02:23:29;;;;;;;0.00;0.00;;;27.30;47.60;;;;;;5089797;28;20201;-44
2024/01/09 02:26:01;;;;;;;0.00;0.00;;;27.30;47.60;;;;;;5089850;28;20202;-48
2024/01/09 02:28:36;;;;;;;0.00;0.00;;;27.30;47.60;;;;;;5090258;28;20217;-42
2024/01/09 02:31:09;;;;;;;0.00;0.00;;;27.30;47.60;;;;;;5128636;22;20232;-47
2024/01/09 02:33:40;;;;;;;0.00;0.00;;;27.30;47.60;;;;;;5131480;27;20660;-48
2024/01/09 02:36:11;;;;;;;0.00;0.00;;;27.40;47.60;;;;;;5128189;27;20193;-45
2024/01/09 02:38:43;;;;;;;0.00;0.00;;;27.40;47.60;;;;;;5128404;27;20200;-45
2024/01/09 02:41:13;;;;;;;0.00;0.00;;;27.40;47.70;;;;;;5130632;27;20235;-45
2024/01/09 02:43:44;;;;;;;0.00;0.00;;;27.40;47.60;;;;;;5130014;27;20546;-46
2024/01/09 02:46:16;;;;;;;0.00;0.00;;;27.40;47.60;;;;;;5119756;27;20209;-45
2024/01/09 02:48:47;;;;;;;0.00;0.00;;;27.40;47.60;;;;;;5117530;27;20184;-44
2024/01/09 02:51:18;;;;;;;0.00;0.00;;;27.50;47.60;;;;;;5110055;28;20213;-47
2024/01/09 02:53:48;;;;;;;0.00;0.00;;;27.40;47.50;;;;;;5119043;27;20590;-45
2024/01/09 02:56:19;;;;;;;0.00;0.00;;;27.50;47.60;;;;;;5130519;27;20275;-50
2024/01/09 02:58:50;;;;;;;0.00;0.00;;;27.50;47.50;;;;;;5130680;27;20185;-45
2024/01/09 03:01:22;;;;;;;0.00;0.00;;;27.50;47.40;;;;;;5129283;27;20226;-46
2024/01/09 03:03:53;;;;;;;0.00;0.00;;;27.50;47.60;;;;;;5119378;27;20188;-46
2024/01/09 03:06:23;;;;;;;0.00;0.00;;;27.50;47.40;;;;;;5129843;27;20192;-47
2024/01/09 03:08:54;;;;;;;0.00;0.00;;;27.50;47.40;;;;;;5129331;27;20193;-46
2024/01/09 03:11:25;;;;;;;0.00;0.00;;;27.50;47.40;;;;;;5130433;27;20761;-47
2024/01/09 03:13:55;;;;;;;0.00;0.00;;;27.50;47.40;;;;;;5128399;27;20640;-45
2024/01/09 03:16:28;;;;;;;0.00;0.00;;;27.50;47.30;;;;;;5124656;27;20200;-46
2024/01/09 03:18:57;;;;;;;0.00;0.00;;;27.50;47.20;;;;;;5130157;27;20645;-46
2024/01/09 03:21:27;;;;;;;0.00;0.00;;;27.50;47.20;;;;;;5128947;27;20236;-47
2024/01/09 03:23:58;;;;;;;0.00;0.00;;;27.50;47.20;;;;;;5129687;27;20796;-45
2024/01/09 03:26:29;;;;;;;0.00;0.00;;;27.50;47.30;;;;;;5129597;27;20192;-46
2024/01/09 03:28:59;;;;;;;0.00;0.00;;;27.50;47.20;;;;;;5126341;27;20196;-45
2024/01/09 03:31:32;;;;;;;0.00;0.00;;;27.60;47.30;;;;;;5108893;22;20257;-43
2024/01/09 03:34:03;;;;;;;0.00;0.00;;;27.60;47.30;;;;;;5088016;28;20236;-42
2024/01/09 03:36:33;;;;;;;0.00;0.00;;;27.60;47.30;;;;;;5089095;28;20197;-44
2024/01/09 03:39:04;;;;;;;0.00;0.00;;;27.60;47.30;;;;;;5099170;28;20205;-39
2024/01/09 03:41:35;;;;;;;0.00;0.00;;;27.60;47.30;;;;;;5086919;28;20234;-40
2024/01/09 03:44:06;;;;;;;0.00;0.00;;;27.60;47.30;;;;;;5088002;28;20205;-40
2024/01/09 03:46:38;;;;;;;0.00;0.00;;;27.60;47.90;;;;;;5087932;28;20198;-43
2024/01/09 03:49:09;;;;;;;0.00;0.00;;;27.60;47.20;;;;;;5088132;28;20665;-42
2024/01/09 03:51:40;;;;;;;0.00;0.00;;;27.70;47.20;;;;;;5088407;28;20557;-43
2024/01/09 03:54:10;;;;;;;0.00;0.00;;;27.60;47.10;;;;;;5088084;28;20717;-40
2024/01/09 03:56:41;;;;;;;0.00;0.00;;;27.70;47.10;;;;;;5088295;28;20194;-41
2024/01/09 03:59:12;;;;;;;0.00;0.00;;;27.70;47.10;;;;;;5088248;28;20693;-42
2024/01/09 04:01:45;;;;;;;0.00;0.00;;;27.70;47.10;;;;;;5087716;28;20240;-44
2024/01/09 04:04:15;;;;;;;0.00;0.00;;;27.70;47.10;;;;;;5088439;28;20198;-39
2024/01/09 04:06:46;;;;;;;0.00;0.00;;;27.70;47.10;;;;;;5088744;28;20198;-40
2024/01/09 04:09:17;;;;;;;0.00;0.00;;;27.70;47.00;;;;;;5095427;28;20201;-41
2024/01/09 04:11:47;;;;;;;0.00;0.00;;;27.70;47.00;;;;;;5087546;28;20686;-40
2024/01/09 04:14:18;;;;;;;0.00;0.00;;;27.70;47.10;;;;;;5088037;28;20205;-44
2024/01/09 04:16:51;;;;;;;0.00;0.00;;;27.70;47.00;;;;;;5087216;28;20194;-42
2024/01/09 04:19:21;;;;;;;0.00;0.00;;;27.80;47.10;;;;;;5087982;28;20688;-40
2024/01/09 04:21:52;;;;;;;0.00;0.00;;;27.80;47.10;;;;;;5087730;28;20222;-41
2024/01/09 04:24:23;;;;;;;0.00;0.00;;;27.80;47.10;;;;;;5087503;28;20198;-43
2024/01/09 04:26:53;;;;;;;0.00;0.00;;;27.80;47.10;;;;;;5088383;28;20481;-41
2024/01/09 04:29:31;;;;;;;0.00;0.00;;;27.80;47.10;;;;;;5087735;28;20630;-41
2024/01/09 04:32:03;;;;;;;0.00;0.00;;;27.80;47.10;;;;;;5087323;28;20190;-41
2024/01/09 04:34:34;;;;;;;0.00;0.00;;;27.80;47.10;;;;;;5087309;28;20658;-42
2024/01/09 04:37:04;;;;;;;0.00;0.00;;;27.80;47.10;;;;;;5090963;28;20206;-42
2024/01/09 04:39:35;;;;;;;0.00;0.00;;;27.80;47.10;;;;;;5088425;28;20194;-42
2024/01/09 04:42:06;;;;;;;0.00;0.00;;;27.90;47.20;;;;;;5088233;28;20233;-44
2024/01/09 04:44:36;;;;;;;0.00;0.00;;;27.90;47.10;;;;;;5087218;28;20197;-39
2024/01/09 04:47:13;;;;;;;0.00;0.00;;;27.90;47.10;;;;;;5087543;28;20201;-42
2024/01/09 04:49:43;;;;;;;0.00;0.00;;;27.90;47.00;;;;;;5087885;28;20201;-40
2024/01/09 04:52:14;;;;;;;0.00;0.00;;;27.90;47.60;;;;;;5088801;28;20714;-42
2024/01/09 04:54:45;;;;;;;0.00;0.00;;;28.00;47.00;;;;;;5091045;28;20201;-40
2024/01/09 04:57:15;;;;;;;0.00;0.00;;;27.90;46.90;;;;;;5090692;28;20674;-45
2024/01/09 04:59:46;;;;;;;0.00;0.00;;;27.90;46.90;;;;;;5090949;28;20201;-42
2024/01/09 05:02:19;;;;;;;0.00;0.00;;;27.90;46.90;;;;;;5091366;28;20221;-42
2024/01/09 05:04:49;;;;;;;0.00;0.00;;;27.90;46.90;;;;;;5091395;28;20194;-41
2024/01/09 05:07:20;;;;;;;0.00;0.00;;;27.90;46.90;;;;;;5097050;28;20672;-43
2024/01/09 05:09:50;;;;;;;0.00;0.00;;;28.00;46.90;;;;;;5111327;28;20236;-43
2024/01/09 05:12:21;;;;;;;0.00;0.00;;;28.00;47.00;;;;;;5111610;28;20201;-42
2024/01/09 05:14:52;;;;;;;0.00;0.00;;;28.00;47.00;;;;;;5096173;28;20554;-43
2024/01/09 05:17:24;;;;;;;0.00;0.00;;;28.00;47.00;;;;;;5091121;28;20198;-44
2024/01/09 05:19:55;;;;;;;0.00;0.00;;;28.00;47.00;;;;;;5090979;28;20214;-46
2024/01/09 05:22:25;;;;;;;0.00;0.00;;;28.00;47.00;;;;;;5090920;28;20233;-41
2024/01/09 05:24:56;;;;;;;0.00;0.00;;;28.00;47.00;;;;;;5090863;28;20245;-41
2024/01/09 05:27:27;;;;;;;0.00;0.00;;;28.00;47.00;;;;;;5090486;28;20231;-43
2024/01/09 05:29:57;;;;;;;0.00;0.00;;;28.00;47.00;;;;;;5090368;28;20226;-41
2024/01/09 05:32:30;;;;;;;0.00;0.00;;;28.00;47.00;;;;;;5093194;28;20201;-41
2024/01/09 05:35:02;;;;;;;0.00;0.00;;;28.00;47.10;;;;;;5094327;28;20186;-41
2024/01/09 05:37:32;;;;;;;0.00;0.00;;;28.00;47.10;;;;;;5102554;28;20201;-44
2024/01/09 05:40:03;;;;;;;0.00;0.00;;;28.00;47.10;;;;;;5115058;28;20221;-41
2024/01/09 05:42:34;;;;;;;0.00;0.00;;;28.00;47.10;;;;;;5114856;28;20261;-40
2024/01/09 05:45:05;;;;;;;0.00;0.00;;;28.00;47.10;;;;;;5115217;28;20196;-41
2024/01/09 05:47:37;;;;;;;0.00;0.00;;;28.00;47.70;;;;;;5109410;28;20205;-43
2024/01/09 05:50:09;;;;;;;0.00;0.00;;;28.00;47.10;;;;;;5094077;28;20685;-42
2024/01/09 05:52:40;;;;;;;0.00;0.00;;;28.00;47.10;;;;;;5093837;28;20194;-41
2024/01/09 05:55:11;;;;;;;0.00;0.00;;;28.00;47.10;;;;;;5093943;28;20217;-43
2024/01/09 05:57:42;;;;;;;0.00;0.00;;;27.90;47.10;;;;;;5094046;28;20193;-41
2024/01/09 06:00:14;;;;;;;0.00;0.00;;;28.00;47.10;;;;;;5093944;28;20214;-44
2024/01/09 06:02:47;;;;;;;0.00;0.00;;;28.00;47.10;;;;;;5093828;28;20214;-45
2024/01/09 06:05:18;;;;;;;0.00;0.00;;;27.90;47.00;;;;;;5094463;28;20194;-42
2024/01/09 06:07:48;;;;;;;0.00;0.00;;;27.90;47.00;;;;;;5102276;28;20197;-41
2024/01/09 06:10:19;;;;;;;0.00;0.00;;;27.90;47.00;;;;;;5089733;28;20222;-43
2024/01/09 06:12:50;;;;;;;0.00;0.00;;;27.90;47.00;;;;;;5091124;28;20202;-42
2024/01/09 06:15:20;;;;;;;0.00;0.00;;;27.90;47.00;;;;;;5090119;28;20205;-42
2024/01/09 06:17:54;;;;;;;0.00;0.00;;;27.90;47.00;;;;;;5090722;28;20547;-45
2024/01/09 06:20:24;;;;;;;0.00;0.00;;;27.90;47.00;;;;;;5090220;28;20636;-42
2024/01/09 06:22:55;;;;;;;0.00;0.00;;;27.90;47.00;;;;;;5090568;28;20229;-43
2024/01/09 06:25:25;;;;;;;0.00;0.00;;;28.00;47.00;;;;;;5090598;28;20198;-43
2024/01/09 06:27:56;;;;;;;0.00;0.00;;;28.00;47.00;;;;;;5090505;28;20558;-42
2024/01/09 06:30:27;;;;;;;0.00;0.00;;;27.90;47.60;;;;;;5090744;28;20994;-41
2024/01/09 06:32:59;;;;;;;0.00;0.00;;;27.90;46.90;;;;;;5090524;28;20206;-40
2024/01/09 06:35:30;;;;;;;0.00;0.00;;;27.90;46.90;;;;;;5089906;28;20206;-45
2024/01/09 06:38:00;;;;;;;0.00;0.00;;;27.90;46.90;;;;;;5101109;28;20740;-39
2024/01/09 06:40:31;;;;;;;0.00;0.00;;;27.90;46.90;;;;;;5089620;28;20218;-40
2024/01/09 06:43:02;;;;;;;0.00;0.00;;;27.90;46.90;;;;;;5088543;28;20282;-42
2024/01/09 06:45:32;;;;;;;0.00;0.00;;;27.90;46.90;;;;;;5089697;28;20198;-41
2024/01/09 06:48:05;;;;;;;0.00;0.00;;;27.90;46.90;;;;;;5089502;28;20194;-42
2024/01/09 06:50:36;;;;;;;0.00;0.00;;;27.90;47.00;;;;;;5090147;28;20214;-42
2024/01/09 06:53:07;;;;;;;0.00;0.00;;;27.80;46.90;;;;;;5089412;28;20221;-40
2024/01/09 06:55:37;;;;;;;0.00;0.00;;;27.80;47.00;;;;;;5089888;28;20206;-42
2024/01/09 06:58:08;;;;;;;0.00;0.00;;;27.80;47.00;;;;;;5089540;28;20202;-41
2024/01/09 07:00:39;;;;;;;0.00;0.00;;;27.80;47.00;;;;;;5089519;28;20217;-41
2024/01/09 07:03:11;;;;;;;0.00;0.00;;;27.80;47.00;;;;;;5089472;28;20226;-42
2024/01/09 07:05:42;;;;;;;0.00;0.00;;;27.80;47.00;;;;;;5089938;28;20197;-43
2024/01/09 07:08:12;;;;;;;0.00;0.00;;;27.80;46.90;;;;;;5101652;28;20564;-43
2024/01/09 07:10:43;;;;;;;0.00;0.00;;;27.80;46.90;;;;;;5090386;28;20222;-44
2024/01/09 07:13:14;;;;;;;0.00;0.00;;;27.80;46.90;;;;;;5093031;28;20194;-41
2024/01/09 07:15:44;;;;;;;0.00;0.00;;;27.80;46.90;;;;;;5092480;28;20242;-40
2024/01/09 07:18:17;;;;;;;0.00;0.00;;;27.70;46.90;;;;;;5092461;28;20190;-42
2024/01/09 07:20:48;;;;;;;0.00;0.00;;;27.70;46.80;;;;;;5092769;28;20214;-44
2024/01/09 07:23:18;;;;;;;0.00;0.00;;;27.70;46.80;;;;;;5092676;28;20229;-42
2024/01/09 07:25:49;;;;;;;0.00;0.00;;;27.70;46.80;;;;;;5086848;28;20228;-42
2024/01/09 07:28:20;;;;;;;0.00;0.00;;;27.70;46.80;;;;;;5089173;28;20653;-41
2024/01/09 07:30:52;;;;;;;0.00;0.00;;;27.70;47.50;;;;;;5089418;28;20221;-40
2024/01/09 07:33:24;;;;;;;0.00;0.00;;;27.70;46.80;;;;;;5088950;28;20198;-46
2024/01/09 07:35:55;;;;;;;0.00;0.00;;;27.70;46.80;;;;;;5075564;28;20206;-43
2024/01/09 07:38:25;;;;;;;0.00;0.00;;;27.70;46.80;;;;;;5091446;28;20194;-43
2024/01/09 07:40:56;;;;;;;0.00;0.00;;;27.60;46.80;;;;;;5088018;28;20241;-41
2024/01/09 07:43:27;;;;;;;0.00;0.00;;;27.70;46.90;;;;;;5087883;28;20229;-40
2024/01/09 07:45:57;;;;;;;0.00;0.00;;;27.60;46.80;;;;;;5086572;28;20920;-45
2024/01/09 07:48:30;;;;;;;0.00;0.00;;;27.60;46.80;;;;;;5088650;28;20202;-42
2024/01/09 07:51:01;;;;;;;0.00;0.00;;;27.60;46.90;;;;;;5086470;28;20218;-42
2024/01/09 07:53:32;;;;;;;0.00;0.00;;;27.60;46.80;;;;;;5088206;28;20209;-40
2024/01/09 07:56:02;;;;;;;0.00;0.00;;;27.60;46.80;;;;;;5088350;28;20384;-38
2024/01/09 07:58:33;;;;;;;0.00;0.00;;;27.60;46.80;;;;;;5087678;28;20202;-41
2024/01/09 08:01:04;;;;;;;0.00;0.00;;;27.60;46.80;;;;;;5087227;28;20210;-39
2024/01/09 08:03:36;;;;;;;0.00;0.00;;;27.60;46.90;;;;;;5086890;28;20729;-42
2024/01/09 08:06:07;;;;;;;0.00;0.00;;;27.60;46.90;;;;;;5088191;28;20197;-42
2024/01/09 08:08:39;;;;;;;0.00;0.00;;;27.50;46.80;;;;;;5103838;28;20201;-44
2024/01/09 08:11:09;;;;;;;0.00;0.00;;;27.50;46.80;;;;;;5092882;28;20225;-42
2024/01/09 08:13:40;;;;;;;0.00;0.00;;;27.50;46.80;;;;;;5088058;28;20202;-43
2024/01/09 08:16:11;;;;;;;0.00;0.00;;;27.50;46.90;;;;;;5087385;28;20198;-43
2024/01/09 08:18:43;;;;;;;0.00;0.00;;;27.50;46.90;;;;;;5088200;28;20224;-44
2024/01/09 08:21:14;;;;;;;0.00;0.00;;;27.50;46.80;;;;;;5087360;28;20746;-45
2024/01/09 08:23:44;;;;;;;0.00;0.00;;;27.50;46.80;;;;;;5087975;28;20624;-40
2024/01/09 08:26:15;;;;;;;0.00;0.00;;;27.50;46.80;;;;;;5087268;28;20193;-41
2024/01/09 08:28:46;;;;;;;0.00;0.00;;;27.50;46.80;;;;;;5087499;28;20216;-39
2024/01/09 08:31:16;;;;;;;0.00;0.00;;;27.50;46.80;;;;;;5086532;28;20232;-45
2024/01/09 08:33:49;;;;;;;0.00;0.00;;;27.50;46.80;;;;;;5087702;28;20201;-43
2024/01/09 08:36:19;;;;;;;0.00;0.00;;;27.40;46.70;;;;;;5087244;28;20190;-41
2024/01/09 08:38:50;;;;;;;0.00;0.00;;;27.40;46.70;;;;;;5105558;28;20562;-40
2024/01/09 08:41:20;;;;;;;0.00;0.00;;;27.40;46.70;;;;;;5092471;28;20205;-41
2024/01/09 08:43:51;;;;;;;0.00;0.00;;;27.40;46.70;;;;;;5086585;28;20229;-39
2024/01/09 08:46:22;;;;;;;0.00;0.00;;;27.40;46.80;;;;;;5086760;28;20604;-44
2024/01/09 08:48:54;;;;;;;0.00;0.00;;;27.40;46.70;;;;;;5086959;28;20664;-43
2024/01/09 08:51:25;;;;;;;0.00;0.00;;;27.40;46.80;;;;;;5086965;28;20217;-39
2024/01/09 08:53:57;;;;;;;0.00;0.00;;;27.40;46.80;;;;;;5086704;28;20197;-43
2024/01/09 08:56:27;;;;;;;0.00;0.00;;;27.30;46.80;;;;;;5086655;28;20202;-38
2024/01/09 08:58:58;;;;;;;0.00;0.00;;;27.30;46.80;;;;;;5087109;28;20206;-40
2024/01/09 09:01:30;;;;;;;0.00;0.00;;;27.30;46.80;;;;;;5097537;28;20217;-39
2024/01/09 09:04:03;;;;;;;0.00;0.00;;;27.30;46.80;;;;;;5108245;28;20267;-39
2024/01/09 09:06:34;;;;;;;0.00;0.00;;;27.30;46.80;;;;;;5093025;28;20193;-39
2024/01/09 09:09:05;;;;;;;0.00;0.00;;;27.30;46.80;;;;;;5110523;28;20262;-40
2024/01/09 09:11:36;;;;;;;0.00;0.00;;;27.20;46.70;;;;;;5091006;28;20302;-41
2024/01/09 09:14:06;;;;;;;0.00;0.00;;;27.20;46.60;;;;;;5095047;28;20209;-39
2024/01/09 09:16:37;;;;;;;0.00;0.00;;;27.20;46.60;;;;;;5090128;28;20205;-38
2024/01/09 09:19:09;;;;;;;0.00;0.00;;;27.20;46.60;;;;;;5091075;28;20206;-39
2024/01/09 09:21:40;;;;;;;0.00;0.00;;;27.20;46.60;;;;;;5090697;28;20221;-39
2024/01/09 09:24:11;;;;;;;0.00;0.00;;;27.20;46.50;;;;;;5091702;28;20222;-38
2024/01/09 09:26:41;;;;;;;0.00;0.00;;;27.10;46.40;;;;;;5089906;28;20293;-40
2024/01/09 09:29:13;;;;;;;0.00;0.00;;;27.20;46.40;;;;;;5090597;28;20236;-41
2024/01/09 09:31:43;;;;;;;0.00;0.00;;;27.10;46.40;;;;;;5091783;28;20226;-40
2024/01/09 09:34:16;;;;;;;0.00;0.00;;;27.10;46.40;;;;;;5091747;28;20202;-40
2024/01/09 09:36:46;;;;;;;0.00;0.00;;;27.10;46.40;;;;;;5092062;28;20194;-40
2024/01/09 09:39:17;;;;;;;0.00;0.00;;;27.10;46.40;;;;;;5097300;28;20217;-39
2024/01/09 09:41:48;;;;;;;0.00;0.00;;;27.00;46.40;;;;;;5090619;28;20218;-39
2024/01/09 09:44:23;;;;;;;0.00;0.00;;;27.00;46.40;;;;;;5083418;28;20226;-40
2024/01/09 09:46:54;;;;;;;0.00;0.00;;;27.00;46.40;;;;;;5089959;28;20535;-39
2024/01/09 09:49:27;;;;;;;0.00;0.00;;;27.00;46.40;;;;;;5090449;28;20198;-38
2024/01/09 09:51:59;;;;;;;0.00;0.00;;;27.00;46.50;;;;;;5091334;28;20245;-41
2024/01/09 09:54:30;;;;;;;0.00;0.00;;;27.00;46.40;;;;;;5090958;28;20658;-39
2024/01/09 09:57:00;;;;;;;0.00;0.00;;;26.90;46.40;;;;;;5090541;28;20197;-39
2024/01/09 09:59:31;;;;;;;0.00;0.00;;;26.90;46.40;;;;;;5091029;28;20404;-41
2024/01/09 10:02:06;;;;;;;0.00;0.00;;;26.90;46.40;;;;;;5090334;28;20214;-39
2024/01/09 10:04:48;;;;;;;0.00;0.00;;;26.90;46.40;;;;;;5090981;28;20213;-38
2024/01/09 10:07:21;;;;;;;0.00;0.00;;;26.80;46.30;;;;;;5094987;28;20288;-42
2024/01/09 10:09:55;;;;;;;0.00;0.00;;;26.80;46.30;;;;;;5093239;28;20688;-40
2024/01/09 10:12:26;;;;;;;0.00;0.00;;;26.80;46.30;;;;;;5089844;28;20255;-40
2024/01/09 10:15:07;;;;;;;0.00;0.00;;;26.80;46.30;;;;;;5089513;28;20202;-43
2024/01/09 10:17:38;;;;;;;0.00;0.00;;;26.70;46.30;;;;;;5090266;28;20209;-40
2024/01/09 10:20:12;;;;;;;0.00;0.00;;;26.70;46.30;;;;;;5090177;28;20306;-39
2024/01/09 10:22:43;;;;;;;0.00;0.00;;;26.70;46.30;;;;;;5090395;28;20652;-39
2024/01/09 10:25:17;;;;;;;0.00;0.00;;;26.70;46.30;;;;;;5089135;28;20194;-42
2024/01/09 10:27:48;;;;;;;0.00;0.00;;;26.60;46.30;;;;;;5089251;28;20298;-40
2024/01/09 10:30:22;;;;;;;0.00;0.00;;;26.60;46.30;;;;;;5090004;28;20215;-40
2024/01/09 10:32:54;;;;;;;0.00;0.00;;;26.60;46.40;;;;;;5090002;28;20656;-41
2024/01/09 10:35:28;;;;;;;0.00;0.00;;;26.50;46.30;;;;;;5088494;28;20267;-43
2024/01/09 10:37:59;;;;;;;0.00;0.00;;;26.50;46.30;;;;;;5101566;28;20740;-41
2024/01/09 10:40:29;;;;;;;0.00;0.00;;;26.50;46.40;;;;;;5109877;28;20258;-42
2024/01/09 10:43:00;;;;;;;0.00;0.00;;;26.50;46.40;;;;;;5089075;28;20601;-41
2024/01/09 10:45:32;;;;;;;0.00;0.00;;;26.50;46.40;;;;;;5088769;28;20210;-44
2024/01/09 10:48:04;;;;;;;0.00;0.00;;;26.50;46.40;;;;;;5069548;28;20198;-43
2024/01/09 10:50:38;;;;;;;0.00;0.00;;;26.40;46.40;;;;;;5069214;28;20215;-40
2024/01/09 10:53:09;;;;;;;0.00;0.00;;;26.40;46.40;;;;;;5081931;28;20194;-41
2024/01/09 10:55:41;;;;;;;0.00;0.00;;;26.40;46.40;;;;;;5090148;28;20194;-43
2024/01/09 10:58:13;;;;;;;0.00;0.00;;;26.40;46.40;;;;;;5068602;28;20478;-44
2024/01/09 11:00:44;;;;;;;0.00;0.00;;;26.40;46.40;;;;;;5069568;28;20222;-42
2024/01/09 11:03:14;;;;;;;0.00;0.00;;;26.30;46.40;;;;;;5086023;28;20592;-46
2024/01/09 11:05:47;;;;;;;0.00;0.00;;;26.30;46.40;;;;;;5089177;28;20205;-43
2024/01/09 11:08:19;;;;;;;0.00;0.00;;;26.30;46.50;;;;;;5096272;28;20224;-40
2024/01/09 11:10:51;;;;;;;0.00;0.00;;;26.30;46.40;;;;;;5101336;28;20247;-41
2024/01/09 11:13:23;;;;;;;0.00;0.00;;;26.30;46.40;;;;;;5091937;28;20268;-46
2024/01/09 11:15:55;;;;;;;0.00;0.00;;;26.20;46.40;;;;;;5091772;28;20186;-43
2024/01/09 11:18:27;;;;;;;0.00;0.00;;;26.20;46.40;;;;;;5092098;28;20189;-40
2024/01/09 11:21:06;;;;;;;0.00;0.00;;;26.20;47.10;;;;;;5089803;28;20695;-40
2024/01/09 11:24:00;;;;;;;0.00;0.00;;;26.20;46.60;;;;;;5092255;28;20220;-42
2024/01/09 11:26:37;;;;;;;0.00;0.00;;;26.10;46.50;;;;;;5091278;28;20187;-43
2024/01/09 11:29:08;;;;;;;0.00;0.00;;;26.20;46.60;;;;;;5088660;28;20381;-44
2024/01/09 11:31:40;;;;;;;0.00;0.00;;;26.10;46.60;;;;;;5089965;28;20304;-39
2024/01/09 11:34:10;;;;;;;0.00;0.00;;;26.10;46.70;;;;;;5092767;28;20194;-44
2024/01/09 11:36:43;;;;;;;0.00;0.00;;;26.00;46.60;;;;;;5092188;28;20650;-43
2024/01/09 11:39:13;;;;;;;0.00;0.00;;;26.00;46.60;;;;;;5112073;28;20204;-43
2024/01/09 11:41:44;;;;;;;0.00;0.00;;;26.00;46.60;;;;;;5112180;28;20220;-42
2024/01/09 11:44:15;;;;;;;0.00;0.00;;;26.00;46.70;;;;;;5112056;28;20217;-41
2024/01/09 11:46:46;;;;;;;0.00;0.00;;;26.00;46.70;;;;;;5112020;28;20684;-44
2024/01/09 11:49:17;;;;;;;0.00;0.00;;;26.00;46.70;;;;;;5107026;28;20565;-41
2024/01/09 11:51:50;;;;;;;0.00;0.00;;;25.90;46.60;;;;;;5091105;28;20214;-41
2024/01/09 11:54:21;;;;;;;0.00;0.00;;;25.90;46.70;;;;;;5101322;28;20197;-44
2024/01/09 11:56:52;;;;;;;0.00;0.00;;;25.90;46.60;;;;;;5111879;28;20378;-46
2024/01/09 11:59:23;;;;;;;0.00;0.00;;;25.90;46.70;;;;;;5111935;28;20197;-44
2024/01/09 12:01:55;;;;;;;0.00;0.00;;;25.90;46.60;;;;;;5111843;28;20637;-46
2024/01/09 12:04:27;;;;;;;0.00;0.00;;;25.90;46.70;;;;;;5109296;28;20221;-41
2024/01/09 12:06:59;;;;;;;0.00;0.00;;;25.80;46.60;;;;;;5094747;28;20222;-44
2024/01/09 12:09:30;;;;;;;0.00;0.00;;;25.80;46.70;;;;;;5112665;28;20592;-44
2024/01/09 12:12:01;;;;;;;0.00;0.00;;;25.80;46.70;;;;;;5112676;28;20672;-43
2024/01/09 12:14:32;;;;;;;0.00;0.00;;;25.80;46.70;;;;;;5112415;28;20208;-46
2024/01/09 12:17:02;;;;;;;0.00;0.00;;;25.70;46.70;;;;;;5111962;28;20197;-42
2024/01/09 12:19:33;;;;;;;0.00;0.00;;;25.70;46.70;;;;;;5111963;28;20669;-41
2024/01/09 12:22:06;;;;;;;0.00;0.00;;;25.70;46.70;;;;;;5112464;28;20583;-46
2024/01/09 12:24:37;;;;;;;0.00;0.00;;;25.70;46.70;;;;;;5112215;28;20685;-43
2024/01/09 12:27:08;;;;;;;0.00;0.00;;;25.60;46.70;;;;;;5112478;28;20394;-46
2024/01/09 12:29:40;;;;;;;0.00;0.00;;;25.60;46.70;;;;;;5112082;28;20246;-44
2024/01/09 12:32:11;;;;;;;0.00;0.00;;;25.60;46.70;;;;;;5110709;28;20308;-43
2024/01/09 12:34:42;;;;;;;0.00;0.00;;;25.60;46.70;;;;;;5090673;28;20187;-44
2024/01/09 12:37:15;;;;;;;0.00;0.00;;;25.60;46.70;;;;;;5096211;28;20557;-44
2024/01/09 12:39:47;;;;;;;0.00;0.00;;;25.60;46.70;;;;;;5111905;28;20223;-44
2024/01/09 12:42:18;;;;;;;0.00;0.00;;;25.60;46.70;;;;;;5111683;28;20279;-44
2024/01/09 12:44:49;;;;;;;0.00;0.00;;;25.60;46.70;;;;;;5096023;28;20308;-43
2024/01/09 12:47:19;;;;;;;0.00;0.00;;;25.60;46.70;;;;;;5092051;28;20277;-46
2024/01/09 12:49:51;;;;;;;0.00;0.00;;;25.50;46.60;;;;;;5091446;28;20202;-44
2024/01/09 12:52:23;;;;;;;0.00;0.00;;;25.50;46.60;;;;;;5091580;28;20197;-45
2024/01/09 12:54:54;;;;;;;0.00;0.00;;;25.50;46.60;;;;;;5091626;28;20198;-47
2024/01/09 12:57:25;;;;;;;0.00;0.00;;;25.50;46.60;;;;;;5091612;28;20208;-44
2024/01/09 12:59:56;;;;;;;0.00;0.00;;;25.40;46.70;;;;;;5091432;28;20190;-46
2024/01/09 13:02:26;;;;;;;0.00;0.00;;;25.40;46.60;;;;;;5090910;28;20229;-41
2024/01/09 13:04:57;;;;;;;0.00;0.00;;;25.40;46.60;;;;;;5091205;28;20226;-45
2024/01/09 13:07:29;;;;;;;0.00;0.00;;;25.40;46.70;;;;;;5097808;28;20197;-44
2024/01/09 13:10:01;;;;;;;0.00;0.00;;;25.40;46.60;;;;;;5111512;28;20201;-43